Massachusetts Logo

Paxton, MA Single Family Real Estate Listings

37 Total Real Estate Listings * Click on table heading to sort
Date Posted Property Type Style Address Price Living Area Lot Size Price/Sq Ft.
2019-06-12 Single Family Ranch 33 Camp Street Paxton, MA 01612 $450,000 2,790 sq. ft. 70,567 sq. ft. $161
2019-06-12 Single Family Colonial 13 Red Oak St Paxton, MA 01612 $419,999 2,326 sq. ft. 44,867 sq. ft. $181
2019-06-11 Single Family Colonial 143 Marshall St Paxton, MA 01612 $534,900 3,780 sq. ft. 70,132 sq. ft. $142
2019-06-11 Single Family Colonial 62 Marshall St Paxton, MA 01612 $430,000 3,000 sq. ft. 61,855 sq. ft. $143
2019-06-10 Single Family Colonial 354 Marshall St Paxton, MA 01612 $369,900 2,100 sq. ft. 93,654 sq. ft. $176
2019-06-09 Single Family Cape 184 West St Paxton, MA 01612 $389,000 2,045 sq. ft. 44,867 sq. ft. $190
2019-06-03 Single Family Contemporary 355 Marshall St Paxton, MA 01612 $409,000 2,578 sq. ft. 111,949 sq. ft. $159
2019-05-30 Single Family Colonial; Villa; French Colonial 217 Grove St Paxton, MA 01612 $590,000 2,738 sq. ft. 130,680 sq. ft. $215
2019-05-24 Single Family Colonial; Victorian 50 Brooks Rd Paxton, MA 01612 $400,000 2,142 sq. ft. 74,052 sq. ft. $187
2019-05-23 Single Family Raised Ranch 2 Holden Rd Paxton, MA 01612 $269,900 1,223 sq. ft. 20,038 sq. ft. $221
2019-05-16 Single Family Contemporary 34 Crowningshield Dr Paxton, MA 01612 $374,900 3,006 sq. ft. 21,344 sq. ft. $125
2019-05-15 Single Family Colonial 52 Davis Hill Rd Paxton, MA 01612 $459,000 2,604 sq. ft. 65,776 sq. ft. $176
2019-05-15 Single Family Cape 131 Pleasant Paxton, MA 01612 $289,900 1,464 sq. ft. 43,560 sq. ft. $198
2019-05-14 Single Family Colonial 545 Marshall Street Paxton, MA 01612 $459,900 2,571 sq. ft. 41,382 sq. ft. $179
2019-05-14 Single Family Colonial 70 Maple Street Paxton, MA 01612 $519,900 4,726 sq. ft. 59,242 sq. ft. $110
2019-05-11 Single Family Colonial 222 Richards. Ave Paxton, MA 01612 $449,000 2,384 sq. ft. 87,120 sq. ft. $188
2019-05-07 Single Family Cape 15 Orchard Dr Paxton, MA 01612 $249,900 1,206 sq. ft. 10,019 sq. ft. $207
2019-04-27 Single Family Ranch 4 Johnnel St Paxton, MA 01612 $277,900 1,227 sq. ft. 41,818 sq. ft. $226
2019-04-27 Single Family Colonial 16 Wildewood Dr Paxton, MA 01612 $670,000 3,965 sq. ft. 56,628 sq. ft. $169
2019-04-23 Single Family Cape; Contemporary 120 Holden Road Paxton, MA 01612 $409,999 2,417 sq. ft. 38,768 sq. ft. $170
2019-04-15 Single Family Cape; Contemporary 12 Nipmuc Rd Paxton, MA 01612 $309,000 2,045 sq. ft. 20,038 sq. ft. $151
2019-04-11 Single Family Colonial; Garrison 354 Marshall St Paxton, MA 01612 $374,900 2,750 sq. ft. 93,654 sq. ft. $136
2019-04-11 Single Family Colonial; Georgian 3 Camp St Paxton, MA 01612 $598,000 3,136 sq. ft. 130,680 sq. ft. $191
2019-04-10 Single Family Colonial 19 Wildewood Dr Paxton, MA 01612 $619,000 3,998 sq. ft. 40,511 sq. ft. $155
2019-04-03 Single Family Colonial; Contemporary 18 Crowningshield Drive Paxton, MA 01612 $399,900 3,489 sq. ft. 22,651 sq. ft. $115
2019-04-01 Single Family Colonial 390 Marshall St Paxton, MA 01612 $444,900 3,079 sq. ft. 125,017 sq. ft. $144
2019-03-27 Single Family Colonial 5 Olivia Knoll Paxton, MA 01612 $530,000 2,900 sq. ft. 64,033 sq. ft. $183
2019-03-21 Single Family Colonial; Garrison 285 Grove St Paxton, MA 01612 $359,900 2,448 sq. ft. 25,700 sq. ft. $147
2019-03-14 Single Family Cape 10 Tanglewood Rd Paxton, MA 01612 $284,900 1,507 sq. ft. 10,890 sq. ft. $189
2019-03-14 Single Family Cape 209 Pleasant St Paxton, MA 01612 $425,000 4,011 sq. ft. 27,007 sq. ft. $106
2019-02-26 Single Family Colonial 177 Grove St Paxton, MA 01612 $100,000 1,083 sq. ft. 20,038 sq. ft. $92
2019-01-26 Single Family Colonial 50 Davis Hill Road Paxton, MA 01612 $649,900 4,972 sq. ft. 61,420 sq. ft. $131
2018-11-15 Single Family Antique 45 Richards Ave Paxton, MA 01612 $180,000 2,594 sq. ft. 52,272 sq. ft. $69
2018-06-24 Single Family Colonial 12 Baxter Drive Paxton, MA 01612 $795,000 5,473 sq. ft. 211,266 sq. ft. $145
2018-06-20 Single Family Colonial LOT 2 Richards Ave Paxton, MA 01612 $449,000 2,348 sq. ft. 90,169 sq. ft. $191
2018-04-02 Single Family Ranch LOT 1 Richards Ave Paxton, MA 01612 $419,900 1,600 sq. ft. 252,212 sq. ft. $262
2018-01-17 Single Family Farmhouse 82 Davis Hill Rd Paxton, MA 01612 $559,000 3,590 sq. ft. 1,263,240 sq. ft. $156